createdAt,value
2018-09-05T00:00:09.869Z,16.30
2018-09-05T00:02:38.061Z,16.40
2018-09-05T00:05:06.136Z,16.50
2018-09-05T00:07:34.177Z,16.50
2018-09-05T00:10:02.230Z,16.50
2018-09-05T00:12:30.322Z,16.40
2018-09-05T00:14:58.372Z,16.30
2018-09-05T00:17:26.515Z,16.30
2018-09-05T00:19:54.580Z,16.20
2018-09-05T00:22:22.638Z,16.20
2018-09-05T00:24:50.687Z,16.30
2018-09-05T00:27:18.738Z,16.30
2018-09-05T00:29:46.795Z,16.30
2018-09-05T00:32:14.865Z,16.20
2018-09-05T00:34:42.914Z,16.10
2018-09-05T00:37:10.962Z,16.10
2018-09-05T00:39:39.022Z,16.00
2018-09-05T00:42:07.067Z,16.00
2018-09-05T00:44:35.129Z,16.00
2018-09-05T00:47:03.179Z,16.00
2018-09-05T00:49:31.362Z,16.00
2018-09-05T00:51:59.454Z,16.10
2018-09-05T00:54:27.493Z,16.10
2018-09-05T00:56:55.546Z,16.10
2018-09-05T00:59:23.580Z,16.00
2018-09-05T01:01:51.646Z,16.00
2018-09-05T01:04:19.713Z,16.00
2018-09-05T01:06:47.749Z,16.00
2018-09-05T01:09:15.799Z,16.00
2018-09-05T01:11:43.838Z,16.00
2018-09-05T01:14:11.898Z,16.10
2018-09-05T01:16:39.938Z,16.10
2018-09-05T01:19:07.987Z,16.10
2018-09-05T01:21:36.034Z,16.00
2018-09-05T01:24:04.095Z,16.00
2018-09-05T01:26:32.139Z,16.00
2018-09-05T01:29:00.222Z,16.00
2018-09-05T01:31:28.266Z,16.00
2018-09-05T01:33:56.309Z,15.90
2018-09-05T01:36:24.390Z,15.90
2018-09-05T01:38:52.448Z,15.90
2018-09-05T01:41:20.521Z,15.80
2018-09-05T01:43:48.590Z,15.80
2018-09-05T01:46:16.630Z,15.70
2018-09-05T01:48:44.674Z,15.70
2018-09-05T01:51:12.734Z,15.70
2018-09-05T01:53:40.780Z,15.70
2018-09-05T01:56:08.835Z,15.70
2018-09-05T01:58:36.869Z,15.70
2018-09-05T02:01:04.910Z,15.70
2018-09-05T02:03:32.954Z,15.80
2018-09-05T02:06:00.993Z,15.80
2018-09-05T02:08:29.064Z,15.80
2018-09-05T02:10:57.089Z,15.80
2018-09-05T02:13:25.182Z,15.80
2018-09-05T02:15:53.255Z,15.80
2018-09-05T02:18:21.281Z,15.80
2018-09-05T02:20:49.344Z,15.80
2018-09-05T02:23:17.394Z,15.80
2018-09-05T02:25:45.446Z,15.80
2018-09-05T02:28:13.533Z,15.70
2018-09-05T02:30:41.605Z,15.70
2018-09-05T02:33:09.646Z,15.60
2018-09-05T02:35:37.710Z,15.60
2018-09-05T02:38:05.774Z,15.70
2018-09-05T02:40:33.939Z,15.60
2018-09-05T02:43:01.922Z,15.60
2018-09-05T02:45:29.970Z,15.60
2018-09-05T02:47:58.035Z,15.50
2018-09-05T02:50:26.094Z,15.50
2018-09-05T02:52:54.150Z,15.40
2018-09-05T02:55:27.774Z,15.40
2018-09-05T02:57:55.838Z,15.40
2018-09-05T03:00:23.893Z,15.30
2018-09-05T03:02:51.950Z,15.30
2018-09-05T03:05:20.014Z,15.30
2018-09-05T03:07:48.079Z,15.20
2018-09-05T03:10:16.123Z,15.20
2018-09-05T03:12:44.166Z,15.20
2018-09-05T03:15:12.237Z,15.20
2018-09-05T03:17:40.306Z,15.10
2018-09-05T03:20:08.402Z,15.10
2018-09-05T03:22:36.454Z,15.00
2018-09-05T03:25:04.646Z,14.90
2018-09-05T03:27:32.702Z,14.90
2018-09-05T03:30:00.762Z,15.00
2018-09-05T03:32:28.944Z,15.10
2018-09-05T03:34:57.082Z,15.10
2018-09-05T03:37:25.151Z,15.10
2018-09-05T03:39:53.230Z,15.10
2018-09-05T03:42:21.317Z,15.10
2018-09-05T03:44:49.366Z,15.10
2018-09-05T03:47:17.419Z,15.10
2018-09-05T03:49:45.509Z,15.10
2018-09-05T03:52:13.551Z,15.10
2018-09-05T03:54:41.621Z,14.90
2018-09-05T03:57:09.718Z,14.80
2018-09-05T03:59:37.802Z,14.80
2018-09-05T04:02:05.888Z,14.80
2018-09-05T04:04:33.959Z,14.80
2018-09-05T04:07:02.014Z,14.90
2018-09-05T04:09:30.086Z,14.90
2018-09-05T04:11:58.203Z,14.90
2018-09-05T04:14:26.239Z,14.90
2018-09-05T04:16:54.337Z,14.90
2018-09-05T04:19:22.400Z,14.80
2018-09-05T04:21:50.495Z,14.70
2018-09-05T04:24:18.557Z,14.60
2018-09-05T04:26:46.622Z,14.50
2018-09-05T04:29:48.308Z,14.40
2018-09-05T04:32:16.338Z,14.30
2018-09-05T04:34:44.379Z,14.40
2018-09-05T04:37:12.438Z,14.40
2018-09-05T04:39:40.502Z,14.40
2018-09-05T04:42:08.552Z,14.30
2018-09-05T04:44:36.635Z,14.30
2018-09-05T04:47:04.706Z,14.20
2018-09-05T04:49:32.895Z,14.20
2018-09-05T04:52:00.952Z,14.20
2018-09-05T04:54:29.017Z,14.20
2018-09-05T04:56:57.075Z,14.20
2018-09-05T04:59:25.142Z,14.20
2018-09-05T05:01:53.199Z,14.20
2018-09-05T05:04:21.262Z,14.20
2018-09-05T05:06:49.334Z,14.20
2018-09-05T05:09:17.410Z,14.10
2018-09-05T05:11:45.463Z,14.00
2018-09-05T05:14:13.510Z,14.00
2018-09-05T05:16:41.561Z,14.00
2018-09-05T05:19:09.618Z,14.00
2018-09-05T05:21:37.682Z,14.10
2018-09-05T05:24:05.739Z,14.20
2018-09-05T05:26:33.830Z,14.20
2018-09-05T05:29:01.869Z,14.20
2018-09-05T05:31:29.910Z,14.20
2018-09-05T05:33:57.959Z,14.20
2018-09-05T05:36:26.050Z,14.30
2018-09-05T05:38:54.098Z,14.40
2018-09-05T05:41:22.146Z,14.40
2018-09-05T05:43:50.194Z,14.50
2018-09-05T05:46:18.213Z,14.60
2018-09-05T05:48:46.270Z,14.60
2018-09-05T05:51:14.330Z,14.70
2018-09-05T05:53:42.394Z,14.70
2018-09-05T05:56:10.453Z,14.80
2018-09-05T05:58:38.518Z,14.90
2018-09-05T06:01:06.626Z,15.00
2018-09-05T06:03:34.606Z,15.00
2018-09-05T06:06:02.695Z,15.20
2018-09-05T06:08:30.690Z,15.30
2018-09-05T06:10:58.742Z,15.40
2018-09-05T06:13:26.806Z,15.50
2018-09-05T06:15:54.861Z,15.60
2018-09-05T06:18:23.037Z,15.70
2018-09-05T06:20:51.205Z,15.70
2018-09-05T06:23:19.246Z,15.70
2018-09-05T06:25:47.326Z,15.80
2018-09-05T06:28:15.387Z,15.80
2018-09-05T06:30:43.562Z,15.70
2018-09-05T06:33:11.506Z,15.70
2018-09-05T06:35:39.537Z,15.80
2018-09-05T06:38:07.575Z,16.00
2018-09-05T06:40:35.626Z,16.00
2018-09-05T06:43:03.670Z,16.10
2018-09-05T06:45:31.856Z,16.20
2018-09-05T06:47:59.803Z,16.20
2018-09-05T06:50:27.834Z,16.30
2018-09-05T06:52:55.879Z,16.30
2018-09-05T06:55:23.914Z,16.40
2018-09-05T06:57:51.965Z,16.50
2018-09-05T07:00:20.014Z,16.70
2018-09-05T07:02:48.250Z,16.70
2018-09-05T07:05:16.837Z,16.80
2018-09-05T07:07:44.878Z,16.80
2018-09-05T07:10:13.130Z,16.80
2018-09-05T07:12:41.178Z,16.90
2018-09-05T07:15:09.222Z,16.90
2018-09-05T07:17:37.337Z,17.00
2018-09-05T07:20:05.294Z,17.10
2018-09-05T07:22:33.354Z,17.00
2018-09-05T07:25:01.424Z,17.00
2018-09-05T07:27:29.473Z,17.20
2018-09-05T07:29:57.494Z,17.30
2018-09-05T07:32:25.542Z,17.30
2018-09-05T07:34:53.586Z,17.40
2018-09-05T07:37:21.626Z,17.50
2018-09-05T07:39:49.673Z,17.60
2018-09-05T07:42:17.722Z,17.70
2018-09-05T07:44:45.766Z,17.80
2018-09-05T07:47:13.818Z,17.90
2018-09-05T07:49:41.858Z,18.10
2018-09-05T07:52:09.923Z,18.20
2018-09-05T07:54:37.961Z,18.30
2018-09-05T07:57:06.017Z,18.40
2018-09-05T07:59:34.098Z,18.40
2018-09-05T08:02:02.285Z,18.40
2018-09-05T08:04:29.664Z,18.50
2018-09-05T08:06:57.717Z,18.60
2018-09-05T08:09:25.113Z,18.70
2018-09-05T08:11:52.593Z,18.80
2018-09-05T08:14:19.902Z,18.90
2018-09-05T08:16:47.296Z,19.00
2018-09-05T08:19:15.330Z,19.10
2018-09-05T08:21:42.721Z,19.10
2018-09-05T08:24:10.173Z,19.20
2018-09-05T08:26:37.490Z,19.30
2018-09-05T08:29:04.931Z,19.40
2018-09-05T08:31:32.253Z,19.40
2018-09-05T08:33:59.637Z,19.50
2018-09-05T08:36:27.283Z,19.50
2018-09-05T08:38:54.435Z,19.60
2018-09-05T08:41:21.858Z,19.80
2018-09-05T08:43:49.265Z,19.90
2018-09-05T08:46:16.587Z,20.00
2018-09-05T08:48:43.974Z,20.10
2018-09-05T08:51:11.352Z,20.20
2018-09-05T08:53:38.717Z,20.30
2018-09-05T08:56:06.153Z,20.30
2018-09-05T08:58:33.489Z,20.40
2018-09-05T09:01:00.877Z,20.30
2018-09-05T09:03:28.974Z,20.60
2018-09-05T09:05:56.379Z,20.60
2018-09-05T09:08:23.725Z,20.70
2018-09-05T09:10:51.125Z,20.80
2018-09-05T09:13:18.503Z,20.80
2018-09-05T09:15:48.841Z,20.90
2018-09-05T09:18:16.274Z,21.00
2018-09-05T09:20:43.653Z,21.00
2018-09-05T09:23:11.057Z,21.00
2018-09-05T09:25:38.449Z,21.10
2018-09-05T09:28:06.533Z,21.20
2018-09-05T09:30:33.901Z,21.40
2018-09-05T09:33:01.289Z,21.60
2018-09-05T09:35:28.769Z,21.60
2018-09-05T09:37:56.789Z,21.60
2018-09-05T09:40:24.191Z,21.90
2018-09-05T09:42:51.594Z,22.10
2018-09-05T09:45:18.985Z,22.10
2018-09-05T09:47:46.393Z,22.20
2018-09-05T09:50:13.777Z,22.30
2018-09-05T09:52:41.852Z,22.30
2018-09-05T09:55:09.906Z,22.10
2018-09-05T09:57:37.741Z,22.20
2018-09-05T10:00:06.514Z,22.30
2018-09-05T10:02:40.153Z,22.40
2018-09-05T10:05:13.718Z,22.50
2018-09-05T10:07:47.135Z,22.70
2018-09-05T10:10:20.861Z,22.90
2018-09-05T10:12:49.090Z,23.00
2018-09-05T10:15:22.538Z,23.10
2018-09-05T10:17:56.202Z,23.10
2018-09-05T10:20:24.251Z,23.10
2018-09-05T10:22:52.306Z,23.30
2018-09-05T10:25:19.702Z,23.50
2018-09-05T10:27:47.793Z,23.60
2018-09-05T10:30:15.841Z,23.60
2018-09-05T10:32:43.903Z,23.80
2018-09-05T10:35:11.955Z,23.90
2018-09-05T10:37:40.023Z,23.90
2018-09-05T10:40:08.106Z,23.90
2018-09-05T10:42:36.162Z,24.10
2018-09-05T10:45:04.275Z,24.20
2018-09-05T10:47:32.310Z,24.30
2018-09-05T10:50:00.399Z,24.40
2018-09-05T10:52:28.462Z,24.50
2018-09-05T10:54:56.540Z,24.70
2018-09-05T10:57:24.588Z,24.90
2018-09-05T10:59:52.702Z,25.20
2018-09-05T11:02:20.767Z,25.60
2018-09-05T11:04:48.177Z,25.70
2018-09-05T11:07:16.223Z,26.10
2018-09-05T11:09:44.270Z,26.60
2018-09-05T11:12:12.323Z,26.90
2018-09-05T11:14:40.391Z,27.10
2018-09-05T11:17:07.778Z,27.10
2018-09-05T11:19:35.166Z,27.20
2018-09-05T11:22:02.563Z,27.40
2018-09-05T11:24:29.962Z,27.80
2018-09-05T11:26:57.351Z,28.20
2018-09-05T11:29:25.450Z,28.60
2018-09-05T11:31:52.837Z,28.20
2018-09-05T11:34:20.902Z,28.00
2018-09-05T11:36:49.005Z,27.00
2018-09-05T11:39:16.390Z,27.10
2018-09-05T11:41:43.761Z,27.80
2018-09-05T11:44:11.166Z,28.50
2018-09-05T11:46:39.134Z,28.80
2018-09-05T11:49:07.301Z,29.50
2018-09-05T11:51:34.693Z,29.60
2018-09-05T11:54:02.075Z,29.40
2018-09-05T11:56:29.494Z,29.80
2018-09-05T11:58:56.898Z,29.90
2018-09-05T12:01:25.226Z,30.40
2018-09-05T12:03:52.714Z,30.90
2018-09-05T12:06:20.123Z,30.70
2018-09-05T12:08:47.506Z,30.00
2018-09-05T12:11:14.914Z,30.60
2018-09-05T12:13:42.329Z,31.20
2018-09-05T12:16:09.727Z,31.60
2018-09-05T12:18:37.817Z,31.80
2018-09-05T12:21:05.190Z,31.90
2018-09-05T12:23:32.594Z,31.70
2018-09-05T12:26:00.666Z,31.90
2018-09-05T12:28:28.761Z,32.10
2018-09-05T12:30:56.790Z,32.40
2018-09-05T12:33:24.878Z,32.60
2018-09-05T12:35:52.943Z,32.70
2018-09-05T12:38:21.067Z,32.90
2018-09-05T12:40:49.085Z,32.40
2018-09-05T12:43:16.469Z,32.30
2018-09-05T12:45:43.853Z,31.70
2018-09-05T12:48:11.911Z,31.90
2018-09-05T12:50:39.978Z,32.20
2018-09-05T12:53:07.574Z,32.60
2018-09-05T12:55:34.977Z,32.70
2018-09-05T12:58:03.038Z,32.80
2018-09-05T13:00:30.449Z,32.90
2018-09-05T13:02:58.502Z,33.00
2018-09-05T13:05:26.582Z,33.00
2018-09-05T13:07:54.650Z,33.00
2018-09-05T13:10:22.740Z,33.10
2018-09-05T13:12:50.794Z,32.90
2018-09-05T13:15:18.193Z,33.00
2018-09-05T13:17:45.591Z,32.90
2018-09-05T13:20:13.155Z,32.60
2018-09-05T13:22:40.556Z,32.90
2018-09-05T13:25:08.618Z,33.40
2018-09-05T13:27:36.069Z,33.50
2018-09-05T13:30:04.218Z,33.00
2018-09-05T13:32:31.612Z,32.60
2018-09-05T13:34:59.007Z,32.90
2018-09-05T13:37:26.389Z,33.00
2018-09-05T13:39:53.772Z,33.00
2018-09-05T13:42:21.858Z,33.20
2018-09-05T13:44:49.250Z,33.50
2018-09-05T13:47:17.334Z,33.20
2018-09-05T13:49:44.765Z,33.20
2018-09-05T13:52:15.994Z,33.40
2018-09-05T13:54:43.381Z,32.90
2018-09-05T13:57:10.754Z,31.90
2018-09-05T13:59:38.152Z,31.20
2018-09-05T14:02:05.546Z,31.30
2018-09-05T14:04:32.938Z,31.90
2018-09-05T14:07:00.321Z,32.50
2018-09-05T14:09:27.721Z,33.00
2018-09-05T14:11:55.758Z,33.30
2018-09-05T14:14:23.806Z,33.30
2018-09-05T14:16:51.189Z,33.40
2018-09-05T14:19:18.594Z,33.30
2018-09-05T14:21:46.633Z,33.10
2018-09-05T14:24:14.021Z,33.20
2018-09-05T14:26:41.401Z,33.10
2018-09-05T14:29:08.797Z,33.20
2018-09-05T14:31:36.372Z,32.80
2018-09-05T14:34:03.778Z,32.80
2018-09-05T14:36:31.355Z,32.90
2018-09-05T14:38:58.794Z,33.00
2018-09-05T14:41:26.183Z,33.10
2018-09-05T14:43:53.569Z,32.90
2018-09-05T14:46:20.957Z,33.00
2018-09-05T14:48:48.938Z,33.10
2018-09-05T14:51:16.362Z,33.00
2018-09-05T14:53:43.749Z,32.90
2018-09-05T14:56:11.134Z,32.40
2018-09-05T14:58:38.511Z,32.30
2018-09-05T15:01:05.893Z,32.10
2018-09-05T15:03:33.297Z,32.20
2018-09-05T15:06:00.689Z,32.30
2018-09-05T15:08:28.070Z,32.50
2018-09-05T15:10:55.485Z,32.60
2018-09-05T15:13:22.889Z,32.70
2018-09-05T15:15:50.274Z,32.90
2018-09-05T15:18:17.677Z,32.90
2018-09-05T15:20:45.084Z,32.70
2018-09-05T15:23:12.502Z,33.10
2018-09-05T15:25:39.924Z,33.00
2018-09-05T15:28:07.309Z,33.10
2018-09-05T15:30:34.714Z,33.10
2018-09-05T15:33:02.112Z,32.60
2018-09-05T15:35:29.511Z,32.40
2018-09-05T15:37:56.873Z,32.40
2018-09-05T15:40:24.271Z,32.20
2018-09-05T15:42:51.650Z,31.90
2018-09-05T15:45:19.020Z,31.90
2018-09-05T15:47:46.413Z,31.80
2018-09-05T15:50:13.799Z,31.90
2018-09-05T15:52:41.189Z,31.70
2018-09-05T15:55:08.578Z,31.30
2018-09-05T15:57:36.667Z,31.10
2018-09-05T16:00:04.042Z,31.00
2018-09-05T16:02:31.430Z,31.00
2018-09-05T16:04:59.466Z,30.80
2018-09-05T16:07:27.515Z,30.90
2018-09-05T16:09:55.564Z,30.90
2018-09-05T16:12:23.608Z,30.80
2018-09-05T16:14:51.722Z,30.50
2018-09-05T16:17:19.787Z,30.40
2018-09-05T16:19:47.835Z,30.50
2018-09-05T16:22:15.902Z,30.50
2018-09-05T16:24:43.946Z,30.40
2018-09-05T16:27:12.001Z,30.30
2018-09-05T16:29:40.061Z,30.30
2018-09-05T16:32:08.108Z,30.20
2018-09-05T16:34:36.399Z,30.00
2018-09-05T16:37:04.454Z,29.80
2018-09-05T16:39:32.526Z,29.40
2018-09-05T16:42:00.554Z,29.40
2018-09-05T16:44:28.622Z,29.10
2018-09-05T16:46:56.682Z,28.80
2018-09-05T16:49:24.713Z,28.70
2018-09-05T16:51:52.765Z,28.70
2018-09-05T16:54:20.809Z,28.50
2018-09-05T16:56:48.874Z,28.30
2018-09-05T16:59:16.946Z,28.10
2018-09-05T17:01:45.010Z,27.90
2018-09-05T17:04:13.050Z,27.70
2018-09-05T17:06:41.103Z,27.50
2018-09-05T17:09:10.622Z,27.40
2018-09-05T17:11:38.714Z,27.20
2018-09-05T17:14:06.842Z,27.00
2018-09-05T17:16:35.101Z,26.90
2018-09-05T17:19:03.158Z,26.60
2018-09-05T17:21:31.321Z,26.50
2018-09-05T17:23:59.398Z,26.20
2018-09-05T17:26:27.446Z,26.00
2018-09-05T17:28:55.587Z,25.80
2018-09-05T17:31:23.633Z,25.60
2018-09-05T17:33:51.675Z,25.40
2018-09-05T17:36:19.740Z,25.20
2018-09-05T17:38:47.786Z,25.20
2018-09-05T17:41:15.966Z,25.10
2018-09-05T17:43:44.015Z,25.00
2018-09-05T17:46:12.163Z,25.00
2018-09-05T17:48:40.182Z,24.90
2018-09-05T17:51:08.225Z,24.80
2018-09-05T17:53:36.286Z,24.60
2018-09-05T17:56:04.326Z,24.50
2018-09-05T17:58:32.370Z,24.40
2018-09-05T18:01:02.370Z,24.40
2018-09-05T18:03:30.427Z,24.30
2018-09-05T18:05:58.493Z,24.10
2018-09-05T18:08:26.587Z,24.00
2018-09-05T18:10:54.617Z,24.00
2018-09-05T18:13:22.683Z,23.90
2018-09-05T18:15:50.750Z,23.90
2018-09-05T18:18:18.835Z,23.80
2018-09-05T18:20:46.903Z,23.80
2018-09-05T18:23:15.012Z,23.70
2018-09-05T18:25:43.075Z,23.60
2018-09-05T18:28:11.171Z,23.60
2018-09-05T18:30:38.562Z,23.50
2018-09-05T18:33:05.999Z,23.50
2018-09-05T18:35:34.070Z,23.40
2018-09-05T18:38:01.625Z,23.30
2018-09-05T18:40:29.713Z,23.30
2018-09-05T18:42:58.667Z,23.20
2018-09-05T18:45:26.731Z,23.10
2018-09-05T18:47:54.810Z,23.10
2018-09-05T18:50:22.921Z,23.10
2018-09-05T18:52:55.246Z,23.00
2018-09-05T18:55:23.329Z,22.90
2018-09-05T18:57:51.445Z,22.80
2018-09-05T19:00:19.498Z,22.80
2018-09-05T19:02:47.623Z,22.70
2018-09-05T19:05:15.694Z,22.60
2018-09-05T19:07:43.806Z,22.50
2018-09-05T19:10:11.885Z,22.50
2018-09-05T19:12:39.956Z,22.40
2018-09-05T19:15:08.083Z,22.40
2018-09-05T19:17:36.290Z,22.30
2018-09-05T19:20:04.371Z,22.30
2018-09-05T19:22:32.467Z,22.20
2018-09-05T19:25:00.529Z,22.10
2018-09-05T19:27:28.607Z,22.10
2018-09-05T19:29:56.001Z,22.00
2018-09-05T19:32:24.056Z,22.00
2018-09-05T19:34:52.142Z,21.90
2018-09-05T19:37:19.526Z,21.90
2018-09-05T19:39:46.935Z,21.80
2018-09-05T19:42:14.349Z,21.80
2018-09-05T19:44:42.414Z,21.80
2018-09-05T19:47:10.538Z,21.70
2018-09-05T19:49:38.599Z,21.70
2018-09-05T19:52:06.654Z,21.60
2018-09-05T19:54:34.702Z,21.60
2018-09-05T19:57:02.781Z,21.50
2018-09-05T19:59:30.811Z,21.50
2018-09-05T20:01:58.946Z,21.40
2018-09-05T20:04:27.119Z,21.30
2018-09-05T20:06:55.185Z,21.30
2018-09-05T20:09:23.294Z,21.20
2018-09-05T20:11:51.359Z,21.10
2018-09-05T20:14:19.430Z,21.00
2018-09-05T20:16:47.506Z,21.00
2018-09-05T20:19:15.589Z,20.90
2018-09-05T20:21:43.665Z,20.90
2018-09-05T20:24:11.719Z,20.90
2018-09-05T20:26:39.782Z,20.80
2018-09-05T20:29:07.861Z,20.80
2018-09-05T20:31:35.945Z,20.90
2018-09-05T20:34:04.002Z,20.80
2018-09-05T20:36:32.475Z,20.80
2018-09-05T20:39:00.622Z,20.80
2018-09-05T20:41:28.662Z,20.80
2018-09-05T20:43:56.765Z,20.70
2018-09-05T20:46:24.834Z,20.70
2018-09-05T20:48:52.895Z,20.60
2018-09-05T20:51:21.238Z,20.60
2018-09-05T20:53:49.282Z,20.60
2018-09-05T20:56:17.600Z,20.60
2018-09-05T20:58:45.723Z,20.50
2018-09-05T21:01:13.718Z,20.40
2018-09-05T21:03:41.786Z,20.30
2018-09-05T21:06:09.876Z,20.30
2018-09-05T21:08:37.903Z,20.20
2018-09-05T21:11:05.991Z,20.20
2018-09-05T21:13:34.042Z,20.10
2018-09-05T21:16:02.131Z,20.00
2018-09-05T21:18:30.175Z,20.00
2018-09-05T21:20:59.210Z,20.00
2018-09-05T21:23:28.247Z,20.10
2018-09-05T21:25:56.318Z,20.10
2018-09-05T21:28:24.369Z,20.00
2018-09-05T21:30:52.630Z,20.00
2018-09-05T21:33:20.673Z,19.90
2018-09-05T21:35:48.757Z,19.80
2018-09-05T21:38:16.837Z,19.80
2018-09-05T21:40:44.882Z,19.80
2018-09-05T21:43:12.945Z,19.80
2018-09-05T21:45:40.993Z,19.70
2018-09-05T21:48:09.095Z,19.60
2018-09-05T21:50:37.114Z,19.50
2018-09-05T21:53:05.282Z,19.50
2018-09-05T21:55:33.840Z,19.50
2018-09-05T21:58:01.935Z,19.40
2018-09-05T22:00:29.987Z,19.50
2018-09-05T22:02:58.057Z,19.40
2018-09-05T22:05:26.153Z,19.40
2018-09-05T22:07:54.430Z,19.40
2018-09-05T22:10:22.986Z,19.30
2018-09-05T22:12:51.082Z,19.20
2018-09-05T22:15:19.144Z,19.20
2018-09-05T22:17:47.194Z,19.20
2018-09-05T22:20:15.266Z,19.20
2018-09-05T22:22:43.362Z,19.20
2018-09-05T22:25:11.410Z,19.10
2018-09-05T22:27:39.478Z,19.20
2018-09-05T22:30:07.522Z,19.20
2018-09-05T22:32:35.570Z,19.10
2018-09-05T22:35:03.722Z,19.10
2018-09-05T22:37:31.770Z,19.10
2018-09-05T22:39:59.822Z,19.10
2018-09-05T22:42:27.881Z,19.00
2018-09-05T22:45:07.506Z,19.00
2018-09-05T22:47:43.418Z,18.90
2018-09-05T22:50:54.234Z,18.80
2018-09-05T22:53:37.667Z,18.80
2018-09-05T22:56:17.382Z,18.70
2018-09-05T22:58:57.600Z,18.70
2018-09-05T23:01:35.483Z,18.70
2018-09-05T23:04:15.623Z,18.60
2018-09-05T23:07:52.674Z,18.60
2018-09-05T23:10:32.203Z,18.60
2018-09-05T23:13:11.835Z,18.60
2018-09-05T23:15:51.351Z,18.50
2018-09-05T23:18:46.516Z,18.50
2018-09-05T23:21:18.737Z,18.40
2018-09-05T23:23:54.386Z,18.40
2018-09-05T23:26:22.437Z,18.30
2018-09-05T23:28:50.487Z,18.30
2018-09-05T23:31:18.740Z,18.30
2018-09-05T23:33:46.815Z,18.30
2018-09-05T23:36:14.878Z,18.30
2018-09-05T23:38:42.927Z,18.30
2018-09-05T23:41:10.995Z,18.30
2018-09-05T23:43:39.072Z,18.20
2018-09-05T23:46:07.145Z,18.10
2018-09-05T23:48:35.198Z,18.10
2018-09-05T23:51:03.264Z,18.00
2018-09-05T23:53:31.332Z,18.00
2018-09-05T23:55:59.421Z,18.00
2018-09-05T23:58:27.491Z,18.00
